Time;durP1;ratioP1;P1;durP2;ratioP2;P2;SDS_P1;SDS_P2;PMS_P1;PMS_P2;Temp;Humidity;BMP_temperature;BMP_pressure;BME280_temperature;BME280_humidity;BME280_pressure;Samples;Min_cycle;Max_cycle;Signal;HPM_P1;HPM_P2
2022/03/13 00:02:15;;;;;;;1.55;1.45;;;;;;;;;;5036230;28;20160;-76
2022/03/13 00:04:41;;;;;;;;;;;;;;;;;;5035925;28;20025;-76
2022/03/13 00:07:19;;;;;;;1.17;1.08;;;;;;;;;;5035120;28;20242;-76
2022/03/13 00:09:53;;;;;;;0.82;0.47;;;;;;;;;;5033017;28;20028;-76
2022/03/13 00:12:28;;;;;;;1.25;1.15;;;;;;;;;;5034632;28;20099;-76
2022/03/13 00:15:02;;;;;;;0.30;0.30;;;;;;;;;;5033902;28;20029;-76
2022/03/13 00:17:30;;;;;;;0.52;0.52;;;;;;;;;;5034100;28;20032;-76
2022/03/13 00:19:57;;;;;;;0.35;0.35;;;;;;;;;;5035687;28;20076;-76
2022/03/13 00:22:25;;;;;;;1.15;1.05;;;;;;;;;;5034663;28;20117;-76
2022/03/13 00:24:50;;;;;;;1.52;1.42;;;;;;;;;;5034771;28;20108;-76
2022/03/13 00:27:18;;;;;;;0.60;0.60;;;;;;;;;;5035708;28;20120;-76
2022/03/13 00:29:43;;;;;;;0.85;0.85;;;;;;;;;;5035517;28;20037;-76
2022/03/13 00:32:09;;;;;;;1.73;1.63;;;;;;;;;;5035609;28;20136;-76
2022/03/13 00:34:34;;;;;;;0.43;0.43;;;;;;;;;;5035210;28;20025;-75
2022/03/13 00:37:00;;;;;;;1.70;1.25;;;;;;;;;;5035552;28;20045;-75
2022/03/13 00:39:28;;;;;;;0.85;0.85;;;;;;;;;;5035502;28;20427;-75
2022/03/13 00:41:53;;;;;;;2.00;1.80;;;;;;;;;;5035323;28;20151;-75
2022/03/13 00:44:22;;;;;;;0.30;0.30;;;;;;;;;;5034530;28;20063;-76
2022/03/13 00:46:47;;;;;;;1.17;1.08;;;;;;;;;;5035248;28;20419;-75
2022/03/13 00:49:12;;;;;;;0.65;0.65;;;;;;;;;;5035216;28;20048;-75
2022/03/13 00:51:38;;;;;;;0.95;0.85;;;;;;;;;;5034266;28;20057;-76
2022/03/13 00:54:04;;;;;;;0.50;0.50;;;;;;;;;;5035048;28;20029;-76
2022/03/13 00:56:30;;;;;;;1.15;0.80;;;;;;;;;;5034705;28;20029;-75
2022/03/13 00:58:58;;;;;;;0.95;0.93;;;;;;;;;;5035129;28;20052;-75
2022/03/13 01:01:23;;;;;;;1.40;1.30;;;;;;;;;;5035169;28;20021;-76
2022/03/13 01:03:51;;;;;;;1.15;1.13;;;;;;;;;;5034062;28;20028;-75
2022/03/13 01:06:17;;;;;;;1.27;1.20;;;;;;;;;;5034028;28;20076;-76
2022/03/13 01:08:44;;;;;;;0.57;0.57;;;;;;;;;;5033812;28;20049;-75
2022/03/13 01:11:10;;;;;;;1.13;1.02;;;;;;;;;;5033879;28;20049;-75
2022/03/13 01:13:36;;;;;;;1.10;0.73;;;;;;;;;;5033929;28;20036;-75
2022/03/13 01:16:23;;;;;;;1.83;1.52;;;;;;;;;;5017157;28;20022;-75
2022/03/13 01:18:50;;;;;;;2.17;2.00;;;;;;;;;;5030856;28;20084;-75
2022/03/13 01:21:16;;;;;;;1.60;1.35;;;;;;;;;;5034806;28;20087;-76
2022/03/13 01:24:00;;;;;;;0.63;0.63;;;;;;;;;;5034461;28;20025;-75
2022/03/13 01:26:25;;;;;;;1.05;0.60;;;;;;;;;;5034598;28;20045;-75
2022/03/13 01:28:59;;;;;;;1.02;0.60;;;;;;;;;;5034199;28;20057;-75
2022/03/13 01:31:35;;;;;;;2.10;1.38;;;;;;;;;;5034504;28;20064;-75
2022/03/13 01:34:04;;;;;;;5.57;1.58;;;;;;;;;;5033897;28;20036;-77
2022/03/13 01:36:32;;;;;;;0.98;0.98;;;;;;;;;;5027427;28;20017;-76
2022/03/13 01:38:59;;;;;;;0.90;0.90;;;;;;;;;;5034398;28;20109;-76
2022/03/13 01:41:27;;;;;;;0.30;0.30;;;;;;;;;;5033336;28;20025;-75
2022/03/13 01:43:52;;;;;;;1.52;1.13;;;;;;;;;;5026635;28;20397;-75
2022/03/13 01:46:18;;;;;;;1.25;1.13;;;;;;;;;;5034390;28;20109;-76
2022/03/13 01:48:52;;;;;;;2.95;0.52;;;;;;;;;;5034471;28;20352;-76
2022/03/13 01:51:17;;;;;;;1.08;1.05;;;;;;;;;;5028637;28;20343;-75
2022/03/13 01:53:43;;;;;;;1.60;1.50;;;;;;;;;;5033525;28;20085;-75
2022/03/13 01:56:08;;;;;;;1.95;1.55;;;;;;;;;;5033953;28;20040;-75
2022/03/13 01:58:34;;;;;;;0.50;0.50;;;;;;;;;;5034373;28;20112;-75
2022/03/13 02:00:59;;;;;;;1.20;1.10;;;;;;;;;;5034287;28;20045;-75
2022/03/13 02:03:26;;;;;;;2.20;1.58;;;;;;;;;;5034323;28;20053;-75
2022/03/13 02:05:53;;;;;;;0.77;0.77;;;;;;;;;;5033654;28;20316;-75
2022/03/13 02:08:21;;;;;;;0.20;0.20;;;;;;;;;;5033841;28;20040;-75
2022/03/13 02:10:48;;;;;;;2.15;1.25;;;;;;;;;;5034603;28;20025;-76
2022/03/13 02:13:16;;;;;;;0.80;0.80;;;;;;;;;;5033051;28;20366;-76
2022/03/13 02:15:44;;;;;;;1.10;0.25;;;;;;;;;;5033921;28;20120;-75
2022/03/13 02:18:14;;;;;;;0.60;0.60;;;;;;;;;;5033220;28;20083;-75
2022/03/13 02:20:44;;;;;;;0.95;0.88;;;;;;;;;;5033902;28;20370;-75
2022/03/13 02:23:21;;;;;;;1.55;1.17;;;;;;;;;;5033093;28;20167;-76
2022/03/13 02:25:54;;;;;;;0.80;0.57;;;;;;;;;;5033917;28;20047;-75
2022/03/13 02:28:21;;;;;;;0.93;0.90;;;;;;;;;;5033867;28;20014;-76
2022/03/13 02:31:00;;;;;;;6.88;1.15;;;;;;;;;;5033567;28;20037;-76
2022/03/13 02:33:26;;;;;;;3.83;1.88;;;;;;;;;;5032796;28;20163;-76
2022/03/13 02:36:07;;;;;;;1.23;1.08;;;;;;;;;;5033740;28;20060;-76
2022/03/13 02:38:32;;;;;;;1.65;1.55;;;;;;;;;;5033540;28;20029;-76
2022/03/13 02:40:58;;;;;;;0.57;0.50;;;;;;;;;;5033715;28;20336;-76
2022/03/13 02:43:25;;;;;;;0.60;0.60;;;;;;;;;;5033717;28;20438;-76
2022/03/13 02:45:52;;;;;;;3.13;1.67;;;;;;;;;;5033599;28;20037;-75
2022/03/13 02:48:18;;;;;;;2.08;1.80;;;;;;;;;;5033866;28;20014;-76
2022/03/13 02:50:43;;;;;;;0.95;0.93;;;;;;;;;;5032710;28;20108;-75
2022/03/13 02:53:11;;;;;;;1.88;1.27;;;;;;;;;;5033410;28;20431;-76
2022/03/13 02:55:37;;;;;;;0.75;0.68;;;;;;;;;;5035499;28;20413;-75
2022/03/13 02:58:02;;;;;;;0.70;0.70;;;;;;;;;;5037280;28;20014;-76
2022/03/13 03:00:44;;;;;;;1.75;1.63;;;;;;;;;;5036402;28;20041;-76
2022/03/13 03:03:12;;;;;;;0.60;0.55;;;;;;;;;;5035888;28;20482;-75
2022/03/13 03:05:38;;;;;;;2.72;1.55;;;;;;;;;;5018518;28;20036;-76
2022/03/13 03:08:03;;;;;;;0.75;0.75;;;;;;;;;;5036739;28;20029;-76
2022/03/13 03:10:32;;;;;;;2.92;2.63;;;;;;;;;;5037193;28;20049;-76
2022/03/13 03:12:58;;;;;;;0.88;0.63;;;;;;;;;;5036106;28;20033;-76
2022/03/13 03:15:25;;;;;;;2.20;1.92;;;;;;;;;;5037066;28;20033;-76
2022/03/13 03:17:51;;;;;;;0.10;0.10;;;;;;;;;;5036779;28;20095;-76
2022/03/13 03:20:16;;;;;;;0.73;0.55;;;;;;;;;;5036215;28;20336;-76
2022/03/13 03:22:44;;;;;;;0.98;0.90;;;;;;;;;;5036191;28;20538;-76
2022/03/13 03:25:09;;;;;;;0.25;0.25;;;;;;;;;;5036826;28;20048;-76
2022/03/13 03:27:37;;;;;;;0.55;0.55;;;;;;;;;;5036898;28;20014;-76
2022/03/13 03:30:08;;;;;;;1.35;1.25;;;;;;;;;;5035608;28;20032;-76
2022/03/13 03:32:35;;;;;;;0.52;0.50;;;;;;;;;;5036896;28;20060;-76
2022/03/13 03:35:03;;;;;;;0.57;0.30;;;;;;;;;;5036659;28;20039;-76
2022/03/13 03:37:34;;;;;;;2.50;1.05;;;;;;;;;;5036606;28;20021;-76
2022/03/13 03:40:00;;;;;;;1.25;1.08;;;;;;;;;;5035620;28;20025;-76
2022/03/13 03:42:28;;;;;;;1.48;0.85;;;;;;;;;;5036334;28;20038;-76
2022/03/13 03:44:53;;;;;;;0.68;0.68;;;;;;;;;;5035705;28;20104;-76
2022/03/13 03:47:21;;;;;;;1.75;1.65;;;;;;;;;;5035578;28;20119;-76
2022/03/13 03:49:46;;;;;;;0.85;0.85;;;;;;;;;;5036336;28;20038;-76
2022/03/13 03:52:12;;;;;;;1.10;1.10;;;;;;;;;;5036418;28;20025;-76
2022/03/13 03:54:37;;;;;;;1.05;1.05;;;;;;;;;;5036277;28;20029;-76
2022/03/13 03:57:02;;;;;;;0.70;0.70;;;;;;;;;;5035363;28;20026;-76
2022/03/13 03:59:30;;;;;;;0.32;0.32;;;;;;;;;;5036633;28;20121;-76
2022/03/13 04:01:56;;;;;;;0.40;0.40;;;;;;;;;;5036150;28;20100;-76
2022/03/13 04:04:21;;;;;;;1.65;1.38;;;;;;;;;;5036136;28;20108;-77
2022/03/13 04:06:47;;;;;;;1.60;1.50;;;;;;;;;;5035517;28;20435;-76
2022/03/13 04:09:12;;;;;;;0.63;0.63;;;;;;;;;;5035216;28;20026;-76
2022/03/13 04:11:38;;;;;;;1.70;1.38;;;;;;;;;;5036177;28;20057;-76
2022/03/13 04:14:04;;;;;;;0.25;0.25;;;;;;;;;;5036097;28;20029;-77
2022/03/13 04:16:32;;;;;;;1.20;1.10;;;;;;;;;;5036073;28;20029;-76
2022/03/13 04:18:57;;;;;;;0.57;0.57;;;;;;;;;;5036035;28;20112;-75
2022/03/13 04:21:23;;;;;;;2.28;2.10;;;;;;;;;;5035813;28;20541;-76
2022/03/13 04:23:51;;;;;;;0.75;0.75;;;;;;;;;;5034910;28;20021;-76
2022/03/13 04:26:17;;;;;;;1.92;1.27;;;;;;;;;;5034878;28;20033;-76
2022/03/13 04:28:42;;;;;;;1.50;1.38;;;;;;;;;;5036020;28;20021;-77
2022/03/13 04:31:08;;;;;;;2.55;0.98;;;;;;;;;;5033243;28;20363;-76
2022/03/13 04:33:35;;;;;;;0.85;0.85;;;;;;;;;;5032723;28;20029;-76
2022/03/13 04:36:03;;;;;;;1.17;1.02;;;;;;;;;;5035952;28;20021;-76
2022/03/13 04:38:29;;;;;;;0.85;0.65;;;;;;;;;;5035645;28;20029;-75
2022/03/13 04:40:55;;;;;;;1.27;1.17;;;;;;;;;;5034769;28;20033;-76
2022/03/13 04:43:21;;;;;;;1.67;1.58;;;;;;;;;;5034808;28;20131;-75
2022/03/13 04:45:48;;;;;;;0.60;0.60;;;;;;;;;;5034743;28;20465;-74
2022/03/13 04:48:17;;;;;;;1.33;0.80;;;;;;;;;;5034787;28;20029;-75
2022/03/13 04:50:43;;;;;;;5.32;0.90;;;;;;;;;;5034687;28;20442;-76
2022/03/13 04:53:08;;;;;;;23.58;2.70;;;;;;;;;;5035382;28;20037;-76
2022/03/13 04:55:38;;;;;;;0.40;0.40;;;;;;;;;;5035177;28;20022;-75
2022/03/13 04:58:04;;;;;;;1.40;1.30;;;;;;;;;;5035283;28;20031;-75
2022/03/13 05:00:32;;;;;;;0.60;0.60;;;;;;;;;;5032887;28;20037;-75
2022/03/13 05:02:59;;;;;;;0.10;0.10;;;;;;;;;;5031514;28;20025;-76
2022/03/13 05:05:27;;;;;;;0.93;0.80;;;;;;;;;;5034685;28;20057;-75
2022/03/13 05:07:55;;;;;;;0.20;0.20;;;;;;;;;;5034666;28;20136;-75
2022/03/13 05:10:20;;;;;;;2.92;2.35;;;;;;;;;;5034547;28;20061;-75
2022/03/13 05:12:47;;;;;;;4.07;3.20;;;;;;;;;;5035049;28;20063;-75
2022/03/13 05:15:13;;;;;;;1.75;1.13;;;;;;;;;;5034122;28;20048;-75
2022/03/13 05:17:38;;;;;;;1.38;0.73;;;;;;;;;;5034137;28;20032;-75
2022/03/13 05:20:05;;;;;;;0.82;0.50;;;;;;;;;;5034759;28;20060;-75
2022/03/13 05:22:30;;;;;;;1.95;1.67;;;;;;;;;;5017112;28;20039;-75
2022/03/13 05:24:56;;;;;;;0.65;0.65;;;;;;;;;;5033746;28;20092;-75
2022/03/13 05:27:24;;;;;;;0.15;0.15;;;;;;;;;;5034823;28;20078;-76
2022/03/13 05:29:52;;;;;;;1.70;1.17;;;;;;;;;;5033429;28;20025;-75
2022/03/13 05:32:19;;;;;;;2.00;1.15;;;;;;;;;;5034866;28;20029;-76
2022/03/13 05:34:47;;;;;;;0.55;0.47;;;;;;;;;;5034532;28;20017;-75
2022/03/13 05:37:13;;;;;;;0.88;0.88;;;;;;;;;;5033387;28;20036;-75
2022/03/13 05:39:38;;;;;;;3.38;1.38;;;;;;;;;;5034361;28;20029;-76
2022/03/13 05:42:05;;;;;;;1.23;1.13;;;;;;;;;;5034323;28;20532;-75
2022/03/13 05:44:31;;;;;;;0.90;0.90;;;;;;;;;;5034400;28;20570;-75
2022/03/13 05:47:02;;;;;;;1.15;1.05;;;;;;;;;;5034308;28;20032;-75
2022/03/13 05:49:27;;;;;;;1.83;1.45;;;;;;;;;;5034261;28;20033;-75
2022/03/13 05:51:53;;;;;;;1.13;0.90;;;;;;;;;;5034174;28;20030;-75
2022/03/13 05:54:20;;;;;;;0.40;0.40;;;;;;;;;;5034366;28;20040;-76
2022/03/13 05:56:46;;;;;;;3.83;0.65;;;;;;;;;;5033191;28;20032;-75
2022/03/13 05:59:11;;;;;;;1.85;1.75;;;;;;;;;;5033662;28;20104;-75
2022/03/13 06:01:38;;;;;;;1.38;1.15;;;;;;;;;;5034268;28;20029;-76
2022/03/13 06:04:06;;;;;;;0.88;0.88;;;;;;;;;;5034482;28;20060;-75
2022/03/13 06:06:34;;;;;;;0.45;0.45;;;;;;;;;;5033289;28;20017;-75
2022/03/13 06:08:59;;;;;;;0.68;0.68;;;;;;;;;;5027398;28;20030;-75
2022/03/13 06:11:27;;;;;;;0.93;0.85;;;;;;;;;;5033939;28;20033;-75
2022/03/13 06:13:52;;;;;;;0.60;0.60;;;;;;;;;;5033016;28;20025;-76
2022/03/13 06:16:21;;;;;;;1.60;1.50;;;;;;;;;;5033988;28;20025;-76
2022/03/13 06:18:47;;;;;;;1.75;1.65;;;;;;;;;;5033865;28;20348;-75
2022/03/13 06:21:13;;;;;;;2.15;1.25;;;;;;;;;;5049528;28;20044;-75
2022/03/13 06:23:39;;;;;;;1.75;1.65;;;;;;;;;;5033970;28;20135;-76
2022/03/13 06:26:05;;;;;;;0.60;0.60;;;;;;;;;;5033900;28;20415;-75
2022/03/13 06:28:34;;;;;;;0.90;0.80;;;;;;;;;;5033893;28;20097;-76
2022/03/13 06:31:00;;;;;;;0.47;0.47;;;;;;;;;;5037281;28;20504;-74
2022/03/13 06:33:26;;;;;;;1.83;1.63;;;;;;;;;;5037868;28;20067;-76
2022/03/13 06:35:53;;;;;;;0.52;0.52;;;;;;;;;;5037967;28;20025;-75
2022/03/13 06:38:21;;;;;;;1.38;1.23;;;;;;;;;;5037839;28;20516;-75
2022/03/13 06:40:47;;;;;;;0.25;0.25;;;;;;;;;;5037595;28;20439;-76
2022/03/13 06:43:12;;;;;;;0.35;0.35;;;;;;;;;;5036794;28;20075;-75
2022/03/13 06:45:40;;;;;;;1.08;0.75;;;;;;;;;;5036652;28;20025;-75
2022/03/13 06:48:05;;;;;;;1.25;1.15;;;;;;;;;;5037020;28;20032;-75
2022/03/13 06:50:31;;;;;;;1.23;1.13;;;;;;;;;;5037310;28;20355;-76
2022/03/13 06:52:56;;;;;;;3.05;2.17;;;;;;;;;;5037534;28;20430;-76
2022/03/13 06:55:25;;;;;;;1.35;1.23;;;;;;;;;;5037477;28;20462;-76
2022/03/13 06:57:50;;;;;;;1.33;1.13;;;;;;;;;;5037378;28;20470;-76
2022/03/13 07:00:19;;;;;;;1.08;0.77;;;;;;;;;;5037039;28;20120;-76
2022/03/13 07:02:44;;;;;;;2.80;1.55;;;;;;;;;;5036195;28;20033;-76
2022/03/13 07:05:09;;;;;;;1.15;1.05;;;;;;;;;;5035929;28;20040;-75
2022/03/13 07:07:35;;;;;;;2.35;1.92;;;;;;;;;;5036867;28;20021;-75
2022/03/13 07:10:00;;;;;;;1.35;1.25;;;;;;;;;;5035878;28;20443;-75
2022/03/13 07:12:26;;;;;;;0.45;0.43;;;;;;;;;;5036997;28;20029;-75
2022/03/13 07:14:56;;;;;;;1.45;1.30;;;;;;;;;;5030377;28;20037;-76
2022/03/13 07:17:22;;;;;;;0.52;0.52;;;;;;;;;;5036555;28;20025;-76
2022/03/13 07:19:47;;;;;;;1.25;1.13;;;;;;;;;;5036740;28;20348;-75
2022/03/13 07:22:14;;;;;;;1.55;1.23;;;;;;;;;;5036949;28;20057;-75
2022/03/13 07:24:43;;;;;;;0.98;0.98;;;;;;;;;;5036844;28;20629;-75
2022/03/13 07:27:08;;;;;;;1.98;1.55;;;;;;;;;;5036917;28;20108;-76
2022/03/13 07:29:34;;;;;;;1.17;0.82;;;;;;;;;;5035368;28;20263;-76
2022/03/13 07:31:59;;;;;;;0.70;0.57;;;;;;;;;;5035596;28;20030;-76
2022/03/13 07:34:26;;;;;;;3.25;2.22;;;;;;;;;;5036550;28;20102;-76
2022/03/13 07:36:51;;;;;;;3.63;1.83;;;;;;;;;;5036733;28;20155;-76
2022/03/13 07:39:22;;;;;;;0.85;0.85;;;;;;;;;;5036817;28;20116;-76
2022/03/13 07:41:48;;;;;;;1.52;1.42;;;;;;;;;;5035715;28;20501;-76
2022/03/13 07:44:14;;;;;;;0.88;0.65;;;;;;;;;;5035322;28;20033;-76
2022/03/13 07:46:40;;;;;;;0.88;0.85;;;;;;;;;;5017703;28;20101;-76
2022/03/13 07:49:05;;;;;;;2.03;1.33;;;;;;;;;;5036633;28;20366;-75
2022/03/13 07:51:34;;;;;;;1.15;0.90;;;;;;;;;;5036067;28;20378;-76
2022/03/13 07:53:59;;;;;;;4.68;3.38;;;;;;;;;;5036236;28;20022;-76
2022/03/13 07:56:25;;;;;;;1.33;0.80;;;;;;;;;;5036226;28;20431;-76
2022/03/13 07:58:51;;;;;;;1.42;1.33;;;;;;;;;;5036121;28;20033;-86
2022/03/13 08:01:18;;;;;;;1.05;0.85;;;;;;;;;;5018869;28;20041;-83
2022/03/13 08:03:47;;;;;;;1.50;1.30;;;;;;;;;;5030964;28;20034;-84
2022/03/13 08:06:15;;;;;;;3.28;2.70;;;;;;;;;;5041023;28;20033;-84
2022/03/13 08:08:40;;;;;;;4.70;2.20;;;;;;;;;;5037842;28;20065;-83
2022/03/13 08:11:06;;;;;;;1.02;0.98;;;;;;;;;;5036409;28;20025;-83
2022/03/13 08:13:31;;;;;;;1.00;0.90;;;;;;;;;;5035165;28;20033;-85
2022/03/13 08:15:57;;;;;;;2.95;2.35;;;;;;;;;;5035232;28;20462;-85
2022/03/13 08:18:22;;;;;;;2.97;2.42;;;;;;;;;;5029503;28;20386;-84
2022/03/13 08:20:47;;;;;;;3.78;1.42;;;;;;;;;;5035971;28;20331;-84
2022/03/13 08:23:13;;;;;;;1.65;1.55;;;;;;;;;;5035978;28;20026;-84
2022/03/13 08:25:38;;;;;;;3.20;1.38;;;;;;;;;;5037207;28;20040;-84
2022/03/13 08:28:05;;;;;;;1.67;1.33;;;;;;;;;;5035864;28;20339;-85
2022/03/13 08:30:31;;;;;;;0.82;0.82;;;;;;;;;;5035960;28;20025;-85
2022/03/13 08:32:56;;;;;;;1.85;1.48;;;;;;;;;;5035895;28;20028;-84
2022/03/13 08:35:24;;;;;;;3.17;1.25;;;;;;;;;;5035720;28;20064;-85
2022/03/13 08:37:55;;;;;;;6.00;1.67;;;;;;;;;;5034932;28;20115;-83
2022/03/13 08:40:25;;;;;;;6.20;2.05;;;;;;;;;;5035636;28;20103;-84
2022/03/13 08:42:50;;;;;;;1.08;1.02;;;;;;;;;;5036084;28;20352;-86
2022/03/13 08:45:16;;;;;;;2.00;1.60;;;;;;;;;;5035844;28;20036;-82
2022/03/13 08:47:41;;;;;;;9.77;2.00;;;;;;;;;;5035646;28;20029;-84
2022/03/13 08:50:08;;;;;;;1.15;1.05;;;;;;;;;;5035759;28;20032;-84
2022/03/13 08:52:36;;;;;;;1.48;1.33;;;;;;;;;;5035276;28;20025;-84
2022/03/13 08:55:03;;;;;;;0.90;0.90;;;;;;;;;;5035314;28;20048;-83
2022/03/13 08:57:28;;;;;;;2.25;1.17;;;;;;;;;;5035274;28;20037;-85
2022/03/13 08:59:54;;;;;;;2.60;2.28;;;;;;;;;;5034488;28;20037;-84
2022/03/13 09:02:21;;;;;;;2.28;1.58;;;;;;;;;;5035467;28;20081;-84
2022/03/13 09:04:46;;;;;;;2.97;2.17;;;;;;;;;;5035523;28;20029;-84
2022/03/13 09:07:14;;;;;;;2.72;1.55;;;;;;;;;;5034100;28;20105;-84
2022/03/13 09:09:44;;;;;;;2.92;1.95;;;;;;;;;;5034959;28;20040;-84
2022/03/13 09:12:13;;;;;;;6.93;3.05;;;;;;;;;;5035375;28;20029;-84
2022/03/13 09:14:39;;;;;;;2.15;1.95;;;;;;;;;;5035113;28;20124;-84
2022/03/13 09:17:05;;;;;;;4.50;2.80;;;;;;;;;;5034768;28;20063;-84
2022/03/13 09:19:30;;;;;;;7.07;2.75;;;;;;;;;;5034889;28;20101;-86
2022/03/13 09:21:58;;;;;;;1.98;1.83;;;;;;;;;;5034163;28;20415;-84
2022/03/13 09:24:25;;;;;;;2.17;1.77;;;;;;;;;;5034828;28;20022;-84
2022/03/13 09:26:53;;;;;;;3.90;2.78;;;;;;;;;;5033633;28;20037;-84
2022/03/13 09:29:27;;;;;;;3.47;1.73;;;;;;;;;;5034784;28;20033;-83
2022/03/13 09:31:53;;;;;;;1.67;1.40;;;;;;;;;;5034892;28;20062;-84
2022/03/13 09:34:18;;;;;;;2.38;1.77;;;;;;;;;;5017610;28;20025;-84
2022/03/13 09:36:44;;;;;;;3.95;2.70;;;;;;;;;;5034919;28;20091;-85
2022/03/13 09:39:10;;;;;;;2.72;1.77;;;;;;;;;;5017658;28;20083;-84
2022/03/13 09:41:38;;;;;;;2.72;2.28;;;;;;;;;;5034958;28;20088;-83
2022/03/13 09:44:06;;;;;;;3.92;3.17;;;;;;;;;;5043066;28;20116;-83
2022/03/13 09:46:35;;;;;;;3.15;1.67;;;;;;;;;;5045010;28;20029;-84
2022/03/13 09:49:00;;;;;;;2.05;1.50;;;;;;;;;;5031808;28;20040;-84
2022/03/13 09:51:26;;;;;;;6.85;4.00;;;;;;;;;;5034025;28;20022;-84
2022/03/13 09:53:52;;;;;;;2.35;1.65;;;;;;;;;;5035000;28;20033;-82
2022/03/13 09:56:17;;;;;;;2.65;1.67;;;;;;;;;;5034231;28;20112;-84
2022/03/13 09:58:44;;;;;;;4.78;2.88;;;;;;;;;;5034307;28;20030;-83
2022/03/13 10:01:09;;;;;;;3.13;2.20;;;;;;;;;;5034303;28;20100;-84
2022/03/13 10:03:35;;;;;;;2.33;2.03;;;;;;;;;;5032863;28;20151;-83
2022/03/13 10:06:00;;;;;;;1.70;1.27;;;;;;;;;;5034882;28;20442;-84
2022/03/13 10:08:30;;;;;;;2.83;2.10;;;;;;;;;;5034471;28;20098;-83
2022/03/13 10:10:58;;;;;;;2.50;1.77;;;;;;;;;;5034167;28;20032;-83
2022/03/13 10:13:33;;;;;;;3.80;1.65;;;;;;;;;;5039990;28;20059;-84
2022/03/13 10:15:58;;;;;;;2.55;2.35;;;;;;;;;;5034118;28;20038;-84
2022/03/13 10:18:27;;;;;;;2.45;2.08;;;;;;;;;;5033979;28;20292;-84
2022/03/13 10:20:56;;;;;;;3.55;2.17;;;;;;;;;;5033173;28;20481;-84
2022/03/13 10:23:22;;;;;;;3.80;2.17;;;;;;;;;;5038904;28;20033;-85
2022/03/13 10:25:51;;;;;;;6.47;1.73;;;;;;;;;;5032850;28;20108;-85
2022/03/13 10:28:24;;;;;;;2.50;2.22;;;;;;;;;;5033596;28;20026;-82
2022/03/13 10:30:58;;;;;;;2.65;1.95;;;;;;;;;;5033355;28;20033;-85
2022/03/13 10:33:29;;;;;;;2.90;1.98;;;;;;;;;;5033963;28;20435;-83
2022/03/13 10:36:21;;;;;;;7.45;2.03;;;;;;;;;;5041121;28;20037;-84
2022/03/13 10:38:52;;;;;;;3.97;2.55;;;;;;;;;;5029979;28;20045;-85
2022/03/13 10:41:20;;;;;;;5.65;2.83;;;;;;;;;;5034135;28;20057;-85
2022/03/13 10:43:55;;;;;;;1.73;1.52;;;;;;;;;;5033789;28;20025;-84
2022/03/13 10:46:31;;;;;;;1.23;1.02;;;;;;;;;;5034607;28;20029;-83
2022/03/13 10:49:05;;;;;;;2.80;1.67;;;;;;;;;;5032670;28;20052;-85
2022/03/13 10:51:33;;;;;;;2.90;2.25;;;;;;;;;;5027780;28;20025;-82
2022/03/13 10:53:59;;;;;;;3.00;2.22;;;;;;;;;;5033562;28;20029;-82
2022/03/13 10:56:28;;;;;;;1.48;1.25;;;;;;;;;;5032962;28;20025;-82
2022/03/13 10:58:56;;;;;;;5.90;2.88;;;;;;;;;;5031206;28;20048;-83
2022/03/13 11:01:27;;;;;;;7.32;2.83;;;;;;;;;;5037425;28;20037;-84
2022/03/13 11:03:53;;;;;;;4.25;2.42;;;;;;;;;;5037714;28;20048;-85
2022/03/13 11:06:19;;;;;;;1.83;1.65;;;;;;;;;;5033062;28;20026;-83
2022/03/13 11:08:45;;;;;;;1.42;1.15;;;;;;;;;;5036423;28;20036;-87
2022/03/13 11:11:15;;;;;;;7.95;1.80;;;;;;;;;;5033720;28;20030;-83
2022/03/13 11:13:42;;;;;;;3.15;2.40;;;;;;;;;;5033960;28;20027;-84
2022/03/13 11:16:10;;;;;;;2.35;1.55;;;;;;;;;;5017497;28;20025;-84
2022/03/13 11:18:40;;;;;;;3.38;1.95;;;;;;;;;;5037434;28;20084;-85
2022/03/13 11:21:08;;;;;;;3.22;2.13;;;;;;;;;;5027496;28;20029;-82
2022/03/13 11:23:37;;;;;;;5.00;2.20;;;;;;;;;;5046441;28;20041;-84
2022/03/13 11:26:09;;;;;;;3.60;1.95;;;;;;;;;;5023601;28;20104;-83
2022/03/13 11:28:38;;;;;;;1.88;1.15;;;;;;;;;;5019565;28;20111;-85
2022/03/13 11:31:42;;;;;;;3.10;1.48;;;;;;;;;;4998933;28;20088;-84
2022/03/13 11:34:16;;;;;;;2.20;1.40;;;;;;;;;;4993821;28;20406;-84
2022/03/13 11:36:51;;;;;;;2.65;1.65;;;;;;;;;;4998895;28;20415;-82
2022/03/13 11:39:28;;;;;;;2.35;2.03;;;;;;;;;;5015160;28;20037;-84
2022/03/13 11:41:54;;;;;;;5.25;2.33;;;;;;;;;;4998897;28;20129;-83
2022/03/13 11:44:28;;;;;;;1.65;1.48;;;;;;;;;;5015144;28;20546;-84
2022/03/13 11:46:54;;;;;;;2.63;1.80;;;;;;;;;;5014624;28;20088;-84
2022/03/13 11:49:28;;;;;;;5.53;2.60;;;;;;;;;;5015371;28;20084;-83
2022/03/13 11:52:16;;;;;;;3.67;1.65;;;;;;;;;;5015415;28;20042;-84
2022/03/13 11:54:44;;;;;;;2.15;1.60;;;;;;;;;;5010677;28;20088;-85
2022/03/13 11:57:14;;;;;;;2.35;1.90;;;;;;;;;;5026662;28;20037;-83
2022/03/13 11:59:49;;;;;;;2.42;1.55;;;;;;;;;;5034151;28;20521;-83
2022/03/13 12:02:48;;;;;;;1.98;1.08;;;;;;;;;;5031880;28;20116;-84
2022/03/13 12:05:26;;;;;;;2.97;1.85;;;;;;;;;;5032082;28;20021;-84
2022/03/13 12:08:08;;;;;;;1.10;0.93;;;;;;;;;;5036292;28;20447;-84
2022/03/13 12:10:46;;;;;;;2.25;1.33;;;;;;;;;;5038009;28;20163;-83
2022/03/13 12:13:13;;;;;;;3.70;1.58;;;;;;;;;;5036706;28;20038;-85
2022/03/13 12:15:42;;;;;;;4.07;2.22;;;;;;;;;;5036500;28;20053;-84
2022/03/13 12:18:29;;;;;;;1.63;1.15;;;;;;;;;;5035573;28;20859;-84
2022/03/13 12:21:11;;;;;;;1.92;1.55;;;;;;;;;;5031719;28;20030;-85
2022/03/13 12:23:39;;;;;;;2.53;1.80;;;;;;;;;;5034672;28;20036;-83
2022/03/13 12:26:20;;;;;;;1.30;1.05;;;;;;;;;;5036070;28;20362;-85
2022/03/13 12:28:47;;;;;;;3.95;2.10;;;;;;;;;;5034250;28;20028;-84
2022/03/13 12:31:13;;;;;;;1.95;1.38;;;;;;;;;;5018186;28;20112;-82
2022/03/13 12:33:47;;;;;;;0.77;0.50;;;;;;;;;;5035826;28;20533;-84
2022/03/13 12:36:13;;;;;;;1.27;1.05;;;;;;;;;;5035316;28;20329;-84
2022/03/13 12:38:42;;;;;;;1.27;1.13;;;;;;;;;;5044719;28;20083;-86
2022/03/13 12:41:11;;;;;;;2.63;2.00;;;;;;;;;;5039275;28;20044;-83
2022/03/13 12:43:53;;;;;;;1.60;1.50;;;;;;;;;;5052436;28;20013;-81
2022/03/13 12:46:21;;;;;;;1.92;1.23;;;;;;;;;;5039884;28;20025;-86
2022/03/13 12:49:07;;;;;;;1.42;1.30;;;;;;;;;;5040454;28;20044;-85
2022/03/13 12:51:44;;;;;;;2.78;1.65;;;;;;;;;;5029122;28;20018;-84
2022/03/13 12:54:25;;;;;;;1.75;1.33;;;;;;;;;;5028972;28;20017;-84
2022/03/13 12:56:53;;;;;;;0.85;0.80;;;;;;;;;;5026578;28;20013;-82
2022/03/13 12:59:30;;;;;;;2.70;1.52;;;;;;;;;;5036746;28;20092;-84
2022/03/13 13:02:02;;;;;;;1.73;1.60;;;;;;;;;;5036472;28;20036;-87
2022/03/13 13:04:28;;;;;;;;;;;;;;;;;;5036368;28;20067;-85
2022/03/13 13:06:53;;;;;;;0.73;0.73;;;;;;;;;;5051462;28;19925;-82
2022/03/13 13:09:29;;;;;;;1.13;0.70;;;;;;;;;;5034672;28;20041;-87
2022/03/13 13:11:55;;;;;;;0.80;0.80;;;;;;;;;;5032934;28;20029;-87
2022/03/13 13:14:28;;;;;;;2.17;1.17;;;;;;;;;;5035710;28;20032;-83
2022/03/13 13:16:54;;;;;;;3.42;1.67;;;;;;;;;;5034320;28;20045;-83
2022/03/13 13:19:21;;;;;;;2.22;1.23;;;;;;;;;;5034516;28;20040;-84
2022/03/13 13:21:58;;;;;;;1.05;0.90;;;;;;;;;;5033949;28;20632;-85
2022/03/13 13:24:36;;;;;;;1.25;1.10;;;;;;;;;;5030439;28;20399;-85
2022/03/13 13:27:08;;;;;;;1.00;0.77;;;;;;;;;;5028373;28;20085;-86
2022/03/13 13:29:41;;;;;;;0.50;0.50;;;;;;;;;;5033304;28;20056;-85
2022/03/13 13:32:15;;;;;;;1.08;1.05;;;;;;;;;;5033501;28;20025;-85
2022/03/13 13:34:41;;;;;;;0.60;0.60;;;;;;;;;;5034574;28;20082;-85
2022/03/13 13:37:08;;;;;;;1.05;0.95;;;;;;;;;;5034138;28;20458;-85
2022/03/13 13:39:34;;;;;;;1.83;1.35;;;;;;;;;;5033137;28;20030;-82
2022/03/13 13:42:02;;;;;;;1.65;1.20;;;;;;;;;;5034371;28;20032;-86
2022/03/13 13:44:31;;;;;;;0.40;0.40;;;;;;;;;;5033788;28;20032;-84
2022/03/13 13:47:04;;;;;;;1.13;0.98;;;;;;;;;;5032990;28;20024;-84
2022/03/13 13:49:29;;;;;;;;;;;;;;;;;;5034520;28;20040;-86
2022/03/13 13:52:09;;;;;;;1.58;1.10;;;;;;;;;;5038110;28;19909;-83
2022/03/13 13:54:37;;;;;;;2.55;1.25;;;;;;;;;;5037768;28;20501;-82
2022/03/13 13:57:07;;;;;;;0.63;0.63;;;;;;;;;;5034682;28;20033;-84
2022/03/13 13:59:37;;;;;;;2.38;2.17;;;;;;;;;;5034192;28;20744;-82
2022/03/13 14:02:02;;;;;;;0.50;0.50;;;;;;;;;;5034463;28;20059;-82
2022/03/13 14:04:30;;;;;;;5.35;0.80;;;;;;;;;;5033995;28;20486;-85
2022/03/13 14:06:56;;;;;;;0.47;0.47;;;;;;;;;;5033026;28;20041;-84
2022/03/13 14:09:22;;;;;;;2.10;0.80;;;;;;;;;;5034377;28;20039;-85
2022/03/13 14:11:48;;;;;;;0.35;0.35;;;;;;;;;;5026783;28;20041;-84
2022/03/13 14:14:14;;;;;;;3.53;1.00;;;;;;;;;;5033579;28;20116;-84
2022/03/13 14:16:39;;;;;;;1.17;1.10;;;;;;;;;;5034441;28;20043;-85
2022/03/13 14:19:05;;;;;;;3.70;0.90;;;;;;;;;;5033807;28;20072;-86
2022/03/13 14:21:31;;;;;;;0.85;0.85;;;;;;;;;;5032955;28;20088;-84
2022/03/13 14:23:59;;;;;;;1.17;0.75;;;;;;;;;;5033839;28;20049;-82
2022/03/13 14:26:24;;;;;;;1.17;0.65;;;;;;;;;;5034104;28;20048;-84
2022/03/13 14:28:52;;;;;;;1.20;0.82;;;;;;;;;;5032997;28;20017;-85
2022/03/13 14:31:17;;;;;;;1.30;0.40;;;;;;;;;;5033852;28;20114;-85
2022/03/13 14:33:44;;;;;;;1.70;0.90;;;;;;;;;;5033754;28;20059;-85
2022/03/13 14:36:12;;;;;;;0.85;0.80;;;;;;;;;;5033942;28;20039;-85
2022/03/13 14:38:38;;;;;;;0.50;0.50;;;;;;;;;;5033032;28;20032;-86
2022/03/13 14:41:08;;;;;;;0.82;0.82;;;;;;;;;;5034114;28;20021;-83
2022/03/13 14:43:34;;;;;;;3.17;1.58;;;;;;;;;;5034144;28;20051;-85
2022/03/13 14:46:02;;;;;;;2.05;0.98;;;;;;;;;;5037290;28;20399;-86
2022/03/13 14:48:27;;;;;;;0.77;0.75;;;;;;;;;;5035627;28;20049;-86
2022/03/13 14:50:53;;;;;;;0.75;0.70;;;;;;;;;;5037731;28;20017;-85